Time;durP1;ratioP1;P1;durP2;ratioP2;P2;SDS_P1;SDS_P2;PMS_P1;PMS_P2;Temp;Humidity;BMP_temperature;BMP_pressure;BME280_temperature;BME280_humidity;BME280_pressure;Samples;Min_cycle;Max_cycle;Signal;HPM_P1;HPM_P2
2022/06/08 00:00:54;;;;;;;20.38;16.27;;;;;;;15.96;100.00;100983.16;5070499;28;20052;-74
2022/06/08 00:03:26;;;;;;;23.38;16.35;;;;;;;15.84;100.00;100979.72;5070698;28;20509;-74
2022/06/08 00:05:55;;;;;;;22.60;15.38;;;;;;;15.83;100.00;100975.44;5071636;28;20067;-74
2022/06/08 00:08:24;;;;;;;20.63;16.90;;;;;;;15.73;100.00;100977.97;5071349;28;20048;-74
2022/06/08 00:10:53;;;;;;;20.13;15.75;;;;;;;15.67;100.00;100981.97;5071761;28;20407;-73
2022/06/08 00:13:21;;;;;;;21.83;16.58;;;;;;;15.60;100.00;100975.53;5070242;28;20040;-74
2022/06/08 00:15:49;;;;;;;21.15;14.82;;;;;;;15.57;100.00;100970.50;5071527;28;20380;-73
2022/06/08 00:18:17;;;;;;;20.52;15.95;;;;;;;15.56;100.00;100976.75;5071088;28;20037;-74
2022/06/08 00:20:45;;;;;;;18.52;15.55;;;;;;;15.47;100.00;100969.56;5070913;28;20047;-73
2022/06/08 00:23:14;;;;;;;21.67;16.70;;;;;;;15.35;100.00;100972.28;5071371;28;20028;-73
2022/06/08 00:25:45;;;;;;;21.02;16.85;;;;;;;15.32;100.00;100972.53;5069726;28;20045;-73
2022/06/08 00:28:14;;;;;;;21.10;16.08;;;;;;;15.24;100.00;100967.03;5071035;28;20047;-73
2022/06/08 00:30:42;;;;;;;21.63;17.10;;;;;;;15.32;100.00;100958.44;5070871;28;20071;-73
2022/06/08 00:33:10;;;;;;;21.15;16.42;;;;;;;15.21;100.00;100959.34;5070948;28;20055;-74
2022/06/08 00:35:39;;;;;;;20.83;15.80;;;;;;;15.27;100.00;100961.50;5070648;28;20136;-71
2022/06/08 00:38:07;;;;;;;22.77;16.17;;;;;;;15.27;100.00;100956.19;5071021;28;20040;-70
2022/06/08 00:40:46;;;;;;;19.98;16.08;;;;;;;15.15;100.00;100954.56;5071334;28;20072;-70
2022/06/08 00:43:15;;;;;;;19.77;15.38;;;;;;;15.14;100.00;100950.22;5070737;28;20040;-70
2022/06/08 00:45:45;;;;;;;21.42;15.73;;;;;;;15.13;100.00;100943.25;5070496;28;20894;-70
2022/06/08 00:48:13;;;;;;;20.15;15.20;;;;;;;15.10;100.00;100943.50;5072199;28;20094;-70
2022/06/08 00:50:45;;;;;;;18.17;15.02;;;;;;;15.09;100.00;100940.00;5070635;28;20095;-70
2022/06/08 00:53:16;;;;;;;20.52;15.13;;;;;;;15.07;100.00;100943.75;5068443;28;20445;-70
2022/06/08 00:55:47;;;;;;;19.10;15.10;;;;;;;15.02;100.00;100937.03;5070671;28;20032;-70
2022/06/08 00:58:21;;;;;;;20.42;16.15;;;;;;;14.99;100.00;100934.63;5070163;28;20040;-70
2022/06/08 01:00:49;;;;;;;19.83;15.13;;;;;;;14.98;100.00;100926.81;5070390;28;20040;-70
2022/06/08 01:03:17;;;;;;;20.13;15.48;;;;;;;15.06;100.00;100931.47;5070850;28;20044;-70
2022/06/08 01:05:48;;;;;;;20.65;15.10;;;;;;;15.04;100.00;100923.66;5070685;28;20040;-70
2022/06/08 01:08:26;;;;;;;22.70;15.80;;;;;;;15.09;100.00;100931.22;5070285;28;20499;-70
2022/06/08 01:11:00;;;;;;;19.20;15.55;;;;;;;15.07;100.00;100935.81;5070473;28;20052;-70
2022/06/08 01:13:29;;;;;;;21.60;15.77;;;;;;;15.06;100.00;100931.47;5069128;28;20103;-71
2022/06/08 01:16:00;;;;;;;21.50;15.85;;;;;;;15.08;100.00;100926.88;5069304;28;20052;-70
2022/06/08 01:18:28;;;;;;;22.73;16.60;;;;;;;15.11;100.00;100924.84;5069715;28;20033;-70
2022/06/08 01:21:03;;;;;;;21.38;15.18;;;;;;;15.07;100.00;100917.28;5068748;28;20075;-70
2022/06/08 01:23:31;;;;;;;21.77;16.15;;;;;;;15.09;100.00;100917.97;5068004;28;20050;-69
2022/06/08 01:26:14;;;;;;;22.58;15.63;;;;;;;15.10;100.00;100914.38;5068727;28;20041;-70
2022/06/08 01:28:54;;;;;;;24.48;16.98;;;;;;;15.10;100.00;100914.38;5070289;28;20040;-70
2022/06/08 01:31:46;;;;;;;20.65;15.25;;;;;;;15.20;100.00;100912.63;5068003;28;20040;-70
2022/06/08 01:34:21;;;;;;;22.40;15.88;;;;;;;15.23;100.00;100908.88;5069021;28;20070;-70
2022/06/08 01:37:10;;;;;;;22.52;16.13;;;;;;;15.25;100.00;100904.28;5067433;28;20055;-69
2022/06/08 01:39:52;;;;;;;20.45;15.55;;;;;;;15.24;100.00;100892.84;5070990;28;20085;-69
2022/06/08 01:42:37;;;;;;;22.75;16.85;;;;;;;15.25;100.00;100896.34;5071457;28;20123;-69
2022/06/08 01:45:30;;;;;;;21.35;15.30;;;;;;;15.32;100.00;100897.50;5069537;28;20051;-69
2022/06/08 01:48:16;;;;;;;24.17;16.63;;;;;;;15.42;100.00;100894.91;5075844;28;20101;-69
2022/06/08 01:50:57;;;;;;;21.90;17.08;;;;;;;15.36;100.00;100891.81;5076042;28;20721;-70
2022/06/08 01:53:36;;;;;;;22.65;16.58;;;;;;;15.34;100.00;100885.81;5073155;28;20090;-70
2022/06/08 01:56:15;;;;;;;24.08;15.65;;;;;;;15.37;100.00;100885.53;5076075;28;20043;-70
2022/06/08 01:58:49;;;;;;;22.38;17.15;;;;;;;15.32;100.00;100879.78;5082723;28;20043;-70
2022/06/08 02:01:27;;;;;;;24.63;18.00;;;;;;;15.23;100.00;100874.44;5073774;28;20049;-70
2022/06/08 02:04:04;;;;;;;24.02;17.38;;;;;;;15.19;100.00;100871.22;5071286;28;20115;-70
2022/06/08 02:06:44;;;;;;;24.27;17.67;;;;;;;15.17;100.00;100875.78;5074620;28;20082;-70
2022/06/08 02:09:20;;;;;;;23.70;17.05;;;;;;;15.25;100.00;100868.03;5073724;28;20052;-70
2022/06/08 02:11:56;;;;;;;24.17;16.92;;;;;;;15.32;100.00;100871.00;5073697;28;20041;-69
2022/06/08 02:14:30;;;;;;;22.88;17.35;;;;;;;15.32;100.00;100869.19;5071198;28;20044;-70
2022/06/08 02:17:06;;;;;;;25.55;17.80;;;;;;;15.18;100.00;100858.94;5069190;28;20048;-70
2022/06/08 02:19:39;;;;;;;25.30;18.45;;;;;;;15.25;100.00;100859.25;5075673;28;20045;-70
2022/06/08 02:22:10;;;;;;;;;;;;;;;15.24;100.00;100850.47;5073211;28;20063;-71
2022/06/08 02:24:42;;;;;;;23.95;16.10;;;;;;;15.23;100.00;100840.84;5071452;28;19920;-70
2022/06/08 02:27:15;;;;;;;21.83;16.63;;;;;;;15.27;100.00;100838.75;5072143;28;20365;-70
2022/06/08 02:29:49;;;;;;;27.42;16.95;;;;;;;15.30;100.00;100838.53;5071642;28;20040;-70
2022/06/08 02:35:14;;;;;;;24.30;17.40;;;;;;;15.20;100.00;100826.06;5068737;28;20394;-70
2022/06/08 02:37:48;;;;;;;24.75;18.52;;;;;;;15.14;100.00;100823.09;5071944;28;20047;-70
2022/06/08 02:40:22;;;;;;;22.83;16.83;;;;;;;15.14;100.00;100823.09;5069327;28;20040;-70
2022/06/08 02:42:54;;;;;;;26.58;17.50;;;;;;;15.07;100.00;100821.94;5069068;28;20437;-69
2022/06/08 02:45:26;;;;;;;24.43;17.97;;;;;;;15.07;100.00;100819.28;5070197;28;20040;-70
2022/06/08 02:48:01;;;;;;;23.83;17.40;;;;;;;15.02;100.00;100814.34;5072344;28;20044;-70
2022/06/08 02:50:30;;;;;;;25.27;18.45;;;;;;;14.98;100.00;100811.16;5070285;28;20431;-70
2022/06/08 02:53:30;;;;;;;23.35;18.05;;;;;;;14.91;100.00;100815.25;5071113;28;20841;-69
2022/06/08 02:56:13;;;;;;;24.20;18.63;;;;;;;14.90;100.00;100810.94;5072295;28;20498;-70
2022/06/08 02:58:47;;;;;;;27.42;18.50;;;;;;;14.87;100.00;100805.91;5071997;28;20040;-70
2022/06/08 03:01:21;;;;;;;26.08;19.05;;;;;;;14.87;100.00;100800.59;5073244;28;20048;-70
2022/06/08 03:03:53;;;;;;;26.30;20.13;;;;;;;14.81;100.00;100801.13;5068871;28;20098;-69
2022/06/08 03:06:26;;;;;;;28.10;21.35;;;;;;;14.75;100.00;100801.63;5070945;28;20127;-70
2022/06/08 03:09:01;;;;;;;28.13;21.60;;;;;;;14.81;100.00;100795.84;5074873;28;20067;-70
2022/06/08 03:11:37;;;;;;;27.98;21.42;;;;;;;14.73;100.00;100800.94;5070443;28;20540;-71
2022/06/08 03:14:08;;;;;;;28.92;21.70;;;;;;;14.68;100.00;100796.00;5071934;28;20048;-70
2022/06/08 03:16:39;;;;;;;31.33;23.67;;;;;;;14.66;100.00;100792.66;5072576;28;20099;-70
2022/06/08 03:19:08;;;;;;;30.15;24.50;;;;;;;14.61;100.00;100790.34;5070322;28;20056;-70
2022/06/08 03:21:37;;;;;;;31.90;24.38;;;;;;;14.54;100.00;100783.91;5071672;28;20044;-71
2022/06/08 03:24:06;;;;;;;34.72;26.38;;;;;;;14.44;100.00;100789.13;5070393;28;20063;-71
2022/06/08 03:26:42;;;;;;;34.72;25.85;;;;;;;14.41;100.00;100796.44;5071519;28;20051;-70
2022/06/08 03:29:11;;;;;;;34.25;25.95;;;;;;;14.30;100.00;100798.19;5070043;28;20028;-70
2022/06/08 03:31:39;;;;;;;31.85;23.40;;;;;;;14.27;100.00;100792.28;5072434;28;20047;-71
2022/06/08 03:34:07;;;;;;;33.10;24.85;;;;;;;14.30;100.00;100792.03;5068049;28;20130;-70
2022/06/08 03:36:36;;;;;;;33.72;25.38;;;;;;;14.31;100.00;100799.84;5069872;28;20043;-70
2022/06/08 03:39:05;;;;;;;32.42;25.05;;;;;;;14.31;100.00;100794.56;5072335;28;20048;-71
2022/06/08 03:41:33;;;;;;;35.55;27.42;;;;;;;14.36;100.00;100787.09;5072642;28;20102;-70
2022/06/08 03:44:03;;;;;;;34.83;25.90;;;;;;;14.37;100.00;100788.78;5069869;28;20044;-71
2022/06/08 03:46:37;;;;;;;33.75;27.15;;;;;;;14.41;100.00;100796.44;5070592;28;20067;-71
2022/06/08 03:49:07;;;;;;;34.58;26.45;;;;;;;14.33;100.00;100787.34;5070002;28;20052;-70
2022/06/08 03:51:36;;;;;;;37.33;27.33;;;;;;;14.38;100.00;100784.31;5071834;28;20376;-70
2022/06/08 03:54:09;;;;;;;35.58;27.35;;;;;;;14.40;100.00;100782.41;5068203;28;20059;-70
2022/06/08 03:56:38;;;;;;;;;;;;;;;14.43;100.00;100779.50;5072378;28;20384;-70
2022/06/08 03:59:08;;;;;;;33.08;26.15;;;;;;;14.32;100.00;100788.31;5069129;28;19963;-70
2022/06/08 04:01:37;;;;;;;37.42;28.15;;;;;;;14.34;100.00;100783.75;5071663;28;20040;-70
2022/06/08 04:04:05;;;;;;;34.65;27.92;;;;;;;14.28;100.00;100786.88;5071677;28;20454;-71
2022/06/08 04:06:33;;;;;;;36.03;27.17;;;;;;;14.32;100.00;100787.47;5069231;28;20033;-70
2022/06/08 04:09:02;;;;;;;35.20;26.52;;;;;;;14.33;100.00;100789.16;5070303;28;20419;-70
2022/06/08 04:11:31;;;;;;;34.95;27.15;;;;;;;14.33;100.00;100791.81;5068252;28;20068;-69
2022/06/08 04:14:01;;;;;;;36.88;28.58;;;;;;;14.33;100.00;100786.53;5069226;28;20090;-70
2022/06/08 04:16:30;;;;;;;37.35;28.38;;;;;;;14.33;100.00;100791.81;5070908;28;20040;-69
2022/06/08 04:18:58;;;;;;;35.83;28.55;;;;;;;14.42;100.00;100800.78;5070065;28;20086;-70
2022/06/08 04:21:26;;;;;;;37.17;29.15;;;;;;;14.45;100.00;100806.69;5071308;28;20048;-70
2022/06/08 04:23:55;;;;;;;38.17;28.80;;;;;;;14.42;100.00;100801.63;5071281;28;20122;-72
2022/06/08 04:26:23;;;;;;;36.40;27.40;;;;;;;14.40;100.00;100798.28;5070571;28;20055;-70
2022/06/08 04:28:51;;;;;;;38.30;29.38;;;;;;;14.39;100.00;100801.03;5071040;28;20113;-70
2022/06/08 04:31:20;;;;;;;38.85;28.73;;;;;;;14.39;100.00;100801.03;5071265;28;20107;-70
2022/06/08 04:33:53;;;;;;;40.42;29.15;;;;;;;14.34;100.00;100806.69;5071123;28;20044;-71
2022/06/08 04:36:21;;;;;;;37.38;28.55;;;;;;;14.36;100.00;100800.31;5071410;28;20106;-71
2022/06/08 04:38:50;;;;;;;37.75;28.85;;;;;;;14.33;100.00;100789.16;5070762;28;20090;-70
2022/06/08 04:41:19;;;;;;;41.42;29.80;;;;;;;14.36;100.00;100797.66;5071183;28;20045;-70
2022/06/08 04:43:47;;;;;;;36.90;28.05;;;;;;;14.43;100.00;100786.59;5069638;28;20040;-72
2022/06/08 04:46:17;;;;;;;38.78;28.50;;;;;;;14.43;100.00;100798.00;5071495;28;20075;-72
2022/06/08 04:48:47;;;;;;;38.80;29.10;;;;;;;14.50;100.00;100796.53;5070929;28;20037;-72
2022/06/08 04:51:17;;;;;;;36.80;28.83;;;;;;;14.52;100.00;100802.56;5070772;28;20449;-69
2022/06/08 04:53:47;;;;;;;35.58;27.20;;;;;;;14.58;100.00;100795.91;5068098;28;20047;-70
2022/06/08 04:56:17;;;;;;;33.50;25.95;;;;;;;14.72;100.00;100796.59;5069505;28;20051;-70
2022/06/08 04:58:45;;;;;;;35.17;25.67;;;;;;;14.78;100.00;100791.63;5070724;28;20055;-70
2022/06/08 05:01:13;;;;;;;34.88;25.67;;;;;;;14.85;100.00;100787.50;5074403;28;20498;-70
2022/06/08 05:03:42;;;;;;;35.90;26.67;;;;;;;14.93;100.00;100786.84;5071792;28;20102;-69
2022/06/08 05:06:10;;;;;;;31.58;24.75;;;;;;;14.88;100.00;100776.63;5071712;28;20050;-69
2022/06/08 05:08:40;;;;;;;30.48;24.67;;;;;;;14.99;100.00;100766.97;5070028;28;20052;-72
2022/06/08 05:11:09;;;;;;;31.67;24.52;;;;;;;14.99;100.00;100759.84;5071490;28;20071;-69
2022/06/08 05:13:37;;;;;;;32.53;25.00;;;;;;;15.04;100.00;100770.88;5071229;28;20511;-72
2022/06/08 05:16:06;;;;;;;29.35;23.13;;;;;;;15.13;100.00;100766.59;5069864;28;20503;-71
2022/06/08 05:18:35;;;;;;;29.00;21.92;;;;;;;15.22;100.00;100762.34;5071353;28;20395;-71
2022/06/08 05:21:04;;;;;;;28.77;22.75;;;;;;;15.33;100.00;100767.53;5070817;28;20045;-71
2022/06/08 05:23:35;;;;;;;29.10;22.23;;;;;;;15.42;100.00;100754.47;5069950;28;20044;-71
2022/06/08 05:26:05;;;;;;;27.83;20.95;;;;;;;15.45;100.00;100748.91;5069913;28;20052;-71
2022/06/08 05:28:33;;;;;;;27.52;21.02;;;;;;;15.49;100.00;100753.81;5067754;28;20041;-71
2022/06/08 05:31:01;;;;;;;25.02;20.08;;;;;;;15.60;100.00;100752.88;5070318;28;20047;-71
2022/06/08 05:33:30;;;;;;;23.27;19.48;;;;;;;15.68;100.00;100745.06;5070253;28;20044;-71
2022/06/08 05:35:58;;;;;;;24.42;19.83;;;;;;;15.79;100.00;100748.56;5067651;28;20437;-71
2022/06/08 05:38:26;;;;;;;22.52;18.15;;;;;;;15.88;100.00;100746.00;5070260;28;20098;-71
2022/06/08 05:40:55;;;;;;;24.00;17.95;;;;;;;15.95;100.00;100738.34;5069773;28;20502;-71
2022/06/08 05:43:25;;;;;;;25.00;19.35;;;;;;;15.98;100.00;100737.19;5066393;28;20044;-71
2022/06/08 05:45:53;;;;;;;20.60;16.50;;;;;;;16.02;100.00;100731.50;5066750;28;20549;-70
2022/06/08 05:48:21;;;;;;;22.48;16.35;;;;;;;16.01;100.00;100732.47;5070257;28;20450;-71
2022/06/08 05:50:50;;;;;;;20.83;16.38;;;;;;;16.07;100.00;100733.72;5067867;28;20066;-72
2022/06/08 05:53:18;;;;;;;18.75;15.48;;;;;;;16.14;100.00;100728.69;5067936;28;20064;-72
2022/06/08 05:55:46;;;;;;;20.50;15.68;;;;;;;16.20;100.00;100730.81;5066288;28;20059;-71
2022/06/08 05:58:14;;;;;;;18.35;14.60;;;;;;;16.26;100.00;100722.28;5064321;28;20041;-72
2022/06/08 06:00:44;;;;;;;29.50;15.73;;;;;;;16.33;100.00;100722.56;5069846;28;20040;-71
2022/06/08 06:03:12;;;;;;;18.80;14.02;;;;;;;16.42;100.00;100720.88;5068507;28;20148;-72
2022/06/08 06:05:42;;;;;;;19.55;15.02;;;;;;;16.53;100.00;100715.41;5065487;28;20125;-72
2022/06/08 06:08:12;;;;;;;17.25;13.80;;;;;;;16.62;100.00;100714.56;5068802;28;20628;-71
2022/06/08 06:10:42;;;;;;;17.83;13.70;;;;;;;16.70;100.00;100706.72;5069627;28;20040;-70
2022/06/08 06:13:11;;;;;;;17.23;12.85;;;;;;;16.71;100.00;100708.41;5067460;28;20049;-70
2022/06/08 06:15:39;;;;;;;15.63;11.95;;;;;;;16.78;100.00;100705.16;5067223;28;20045;-70
2022/06/08 06:18:16;;;;;;;18.20;12.20;;;;;;;16.89;100.00;100705.03;5070999;28;20044;-69
2022/06/08 06:20:44;;;;;;;17.67;13.00;;;;;;;16.96;100.00;100707.94;5071290;28;20079;-70
2022/06/08 06:23:13;;;;;;;15.45;11.52;;;;;;;16.98;100.00;100701.50;5070837;28;20457;-70
2022/06/08 06:25:41;;;;;;;16.63;11.48;;;;;;;17.01;100.00;100703.84;5074197;28;20082;-70
2022/06/08 06:28:09;;;;;;;14.85;12.07;;;;;;;17.14;100.00;100694.72;5074704;28;20434;-70
2022/06/08 06:30:37;;;;;;;13.73;11.00;;;;;;;17.14;100.00;100684.94;5074354;28;20517;-70
2022/06/08 06:33:05;;;;;;;16.30;10.73;;;;;;;17.05;100.00;100681.34;5074615;28;20064;-70
2022/06/08 06:35:35;;;;;;;15.95;11.02;;;;;;;17.17;100.00;100670.53;5074403;28;20105;-70
2022/06/08 06:38:05;;;;;;;13.48;9.63;;;;;;;17.12;100.00;100673.63;5074378;28;20044;-70
2022/06/08 06:40:33;;;;;;;14.63;9.43;;;;;;;17.14;100.00;100676.97;5074452;28;20041;-70
2022/06/08 06:43:02;;;;;;;13.43;9.85;;;;;;;17.21;100.00;100666.59;5074419;28;20044;-69
2022/06/08 06:45:31;;;;;;;13.35;9.50;;;;;;;17.29;100.00;100676.47;5074250;28;20051;-69
2022/06/08 06:47:59;;;;;;;12.70;9.32;;;;;;;17.40;100.00;100671.81;5074264;28;20499;-70
2022/06/08 06:50:27;;;;;;;13.52;8.93;;;;;;;17.38;100.00;100671.13;5074034;28;20098;-70
2022/06/08 06:52:59;;;;;;;12.68;9.23;;;;;;;17.52;100.00;100672.44;5074393;28;20106;-70
2022/06/08 06:55:34;;;;;;;11.70;8.20;;;;;;;17.57;100.00;100677.28;5074005;28;20117;-70
2022/06/08 06:58:02;;;;;;;12.43;8.13;;;;;;;17.73;100.00;100673.97;5071673;28;20040;-70
2022/06/08 07:00:30;;;;;;;10.75;7.57;;;;;;;17.76;100.00;100672.84;5068456;28;20056;-70
2022/06/08 07:02:58;;;;;;;12.07;8.13;;;;;;;17.80;100.00;100666.22;5073617;28;20063;-71
2022/06/08 07:05:31;;;;;;;10.50;7.43;;;;;;;17.96;100.00;100669.06;5073983;28;20076;-70
2022/06/08 07:08:01;;;;;;;11.20;7.45;;;;;;;17.86;100.00;100677.09;5072489;28;20439;-70
2022/06/08 07:10:29;;;;;;;10.20;6.60;;;;;;;17.99;100.00;100665.28;5072484;28;20049;-70
2022/06/08 07:12:57;;;;;;;11.38;7.55;;;;;;;18.10;100.00;100669.53;5073898;28;20457;-70
2022/06/08 07:15:26;;;;;;;10.35;6.90;;;;;;;18.22;100.00;100669.13;5068350;28;20051;-69
2022/06/08 07:17:54;;;;;;;10.30;6.22;;;;;;;18.32;100.00;100671.69;5070657;28;20049;-70
2022/06/08 07:20:23;;;;;;;12.00;5.82;;;;;;;18.39;100.00;100669.25;5073976;28;20388;-70
2022/06/08 07:22:52;;;;;;;9.80;5.57;;;;;;;18.39;100.00;100661.25;5073721;28;20083;-69
2022/06/08 07:25:21;;;;;;;10.90;5.63;;;;;;;18.37;100.00;100665.91;5073671;28;20075;-70
2022/06/08 07:27:49;;;;;;;8.18;5.03;;;;;;;18.47;100.00;100656.00;5073161;28;20045;-70
2022/06/08 07:30:18;;;;;;;9.70;5.55;;;;;;;18.51;100.00;100659.19;5068432;28;20078;-69
2022/06/08 07:32:46;;;;;;;8.77;5.00;;;;;;;18.48;100.00;100660.31;5069784;28;20044;-69
2022/06/08 07:35:14;;;;;;;10.05;5.47;;;;;;;18.54;100.00;100664.19;5073124;28;20117;-69
2022/06/08 07:37:42;;;;;;;9.65;4.57;;;;;;;18.62;100.00;100650.94;5072834;28;20475;-69
2022/06/08 07:40:11;;;;;;;8.75;5.25;;;;;;;18.58;100.00;100655.75;5069855;28;20437;-70
2022/06/08 07:42:40;;;;;;;9.98;4.82;;;;;;;18.65;99.65;100641.78;5070058;28;20048;-69
2022/06/08 07:45:11;;;;;;;7.82;4.28;;;;;;;18.71;98.60;100647.31;5073244;28;20068;-69
2022/06/08 07:50:22;;;;;;;8.00;4.30;;;;;;;18.77;100.00;100637.84;5073770;28;20064;-73
2022/06/08 07:52:50;;;;;;;8.35;4.25;;;;;;;18.90;99.58;100640.13;5072928;28;20044;-73
2022/06/08 07:55:19;;;;;;;7.78;4.18;;;;;;;19.08;98.46;100640.84;5073118;28;20059;-73
2022/06/08 07:57:50;;;;;;;9.93;4.50;;;;;;;19.18;96.53;100645.22;5072878;28;20045;-73
2022/06/08 08:00:20;;;;;;;8.43;4.40;;;;;;;19.08;97.22;100645.38;5072990;28;20128;-73
2022/06/08 08:02:48;;;;;;;6.85;4.07;;;;;;;19.16;96.78;100636.56;5072776;28;20087;-73
2022/06/08 08:05:18;;;;;;;6.15;4.00;;;;;;;19.39;95.83;100634.97;5072634;28;20513;-73
2022/06/08 08:07:46;;;;;;;8.40;4.05;;;;;;;19.41;94.07;100624.13;5069385;28;20049;-73
2022/06/08 08:10:18;;;;;;;6.72;3.65;;;;;;;19.49;95.15;100634.81;5069754;28;20461;-70
2022/06/08 08:12:48;;;;;;;8.75;3.90;;;;;;;19.81;94.17;100630.59;5072537;28;20045;-69
2022/06/08 08:15:17;;;;;;;7.00;3.65;;;;;;;20.04;93.05;100630.75;5072642;28;20041;-69
2022/06/08 08:17:46;;;;;;;8.23;3.95;;;;;;;20.09;92.25;100628.38;5072275;28;20052;-70
2022/06/08 08:20:17;;;;;;;5.63;3.50;;;;;;;20.09;91.09;100633.72;5071209;28;20045;-69
2022/06/08 08:22:46;;;;;;;8.10;3.92;;;;;;;20.01;92.13;100620.38;5071185;28;20045;-70
2022/06/08 08:25:16;;;;;;;6.82;3.72;;;;;;;20.26;90.92;100625.75;5068578;28;20403;-70
2022/06/08 08:27:46;;;;;;;9.55;3.50;;;;;;;20.37;91.07;100613.84;5071264;28;20048;-70
2022/06/08 08:30:17;;;;;;;10.10;3.72;;;;;;;20.61;88.95;100620.97;5072256;28;20048;-73
2022/06/08 08:32:45;;;;;;;7.40;3.50;;;;;;;20.67;89.46;100628.31;5072036;28;20410;-73
2022/06/08 08:35:14;;;;;;;8.23;3.78;;;;;;;20.86;87.84;100613.75;5072249;28;20090;-73
2022/06/08 08:37:42;;;;;;;6.20;3.92;;;;;;;20.96;87.31;100608.19;5072122;28;20048;-73
2022/06/08 08:40:30;;;;;;;7.32;3.40;;;;;;;21.40;86.39;100610.28;5072174;28;20052;-73
2022/06/08 08:42:59;;;;;;;8.25;4.10;;;;;;;21.52;83.41;100617.94;5072048;28;20102;-73
2022/06/08 08:45:33;;;;;;;7.30;3.80;;;;;;;21.90;85.49;100608.13;5071518;28;20454;-74
2022/06/08 08:48:06;;;;;;;6.63;3.58;;;;;;;22.15;81.64;100612.44;5068637;28;20441;-74
2022/06/08 08:50:41;;;;;;;6.97;3.85;;;;;;;21.97;80.22;100610.91;5070313;28;20056;-74
2022/06/08 08:53:16;;;;;;;8.73;3.53;;;;;;;21.83;80.98;100603.66;5071895;28;20044;-73
2022/06/08 08:55:49;;;;;;;7.57;3.00;;;;;;;22.20;80.21;100600.16;5071864;28;20052;-74
2022/06/08 08:58:21;;;;;;;6.85;3.78;;;;;;;22.52;77.37;100610.75;5072020;28;20048;-74
2022/06/08 09:00:53;;;;;;;9.07;3.53;;;;;;;22.39;77.38;100608.72;5072211;28;20059;-74
2022/06/08 09:03:27;;;;;;;7.43;3.00;;;;;;;22.83;79.69;100605.19;5072049;28;20808;-74
2022/06/08 09:05:58;;;;;;;12.27;3.13;;;;;;;23.00;75.05;100605.00;5071897;28;20048;-74
2022/06/08 09:08:28;;;;;;;7.03;2.50;;;;;;;23.07;75.59;100590.66;5071630;28;20058;-74
2022/06/08 09:11:01;;;;;;;7.00;3.35;;;;;;;23.34;72.25;100596.34;5071802;28;20044;-74
2022/06/08 09:13:44;;;;;;;10.15;3.20;;;;;;;23.33;72.65;100591.16;5071645;28;20052;-74
2022/06/08 09:16:27;;;;;;;7.85;3.30;;;;;;;23.34;72.91;100590.13;5071705;28;20040;-74
2022/06/08 09:18:57;;;;;;;8.40;2.83;;;;;;;23.18;74.03;100589.38;5071614;28;20051;-74
2022/06/08 09:21:30;;;;;;;7.45;2.70;;;;;;;23.21;74.97;100588.97;5071621;28;20044;-74
2022/06/08 09:24:01;;;;;;;8.55;3.22;;;;;;;23.31;72.75;100590.53;5071908;28;20051;-74
2022/06/08 09:26:40;;;;;;;10.27;3.67;;;;;;;23.02;72.16;100585.00;5071568;28;20399;-74
2022/06/08 09:29:15;;;;;;;8.75;3.03;;;;;;;23.12;73.77;100582.03;5070354;28;20052;-74
2022/06/08 09:31:46;;;;;;;8.27;3.40;;;;;;;22.98;74.17;100588.28;5068514;28;20147;-74
2022/06/08 09:34:22;;;;;;;9.55;3.45;;;;;;;23.09;72.57;100583.22;5069152;28;20078;-74
2022/06/08 09:37:12;;;;;;;6.65;2.83;;;;;;;23.13;74.20;100584.56;5071252;28;20519;-74
2022/06/08 09:39:42;;;;;;;7.05;3.03;;;;;;;23.25;73.67;100581.41;5071210;28;20041;-75
2022/06/08 09:42:25;;;;;;;8.00;3.17;;;;;;;23.43;72.50;100584.47;5071561;28;20048;-73
2022/06/08 09:45:03;;;;;;;6.75;2.78;;;;;;;23.53;73.30;100578.81;5066884;28;20075;-74
2022/06/08 09:53:34;;;;;;;8.85;2.92;;;;;;;23.50;71.89;100570.28;5071695;28;20124;-74
2022/06/08 09:56:11;;;;;;;6.90;2.45;;;;;;;23.27;70.43;100574.81;5069402;28;20065;-74
2022/06/08 09:59:01;;;;;;;7.97;3.00;;;;;;;23.05;70.80;100565.03;5066627;28;20241;-74
2022/06/08 10:01:34;;;;;;;9.00;3.25;;;;;;;22.88;71.98;100570.63;5074364;28;20483;-74
2022/06/08 10:04:29;;;;;;;8.38;2.92;;;;;;;23.01;72.69;100564.56;5075022;28;20131;-74
2022/06/08 10:07:17;;;;;;;7.15;2.95;;;;;;;22.53;73.38;100580.28;5075131;28;20507;-74
2022/06/08 10:10:14;;;;;;;8.77;2.92;;;;;;;22.61;73.34;100574.81;5075014;28;20041;-74
2022/06/08 10:12:48;;;;;;;9.98;2.72;;;;;;;22.79;72.50;100574.44;5074818;28;20060;-74
2022/06/08 10:15:26;;;;;;;7.50;2.25;;;;;;;22.65;73.52;100575.28;5075163;28;20186;-74
2022/06/08 10:18:00;;;;;;;7.35;2.38;;;;;;;22.77;73.43;100574.63;5074814;28;20409;-74
2022/06/08 10:20:34;;;;;;;6.88;2.65;;;;;;;22.87;73.97;100578.88;5074804;28;20052;-75
2022/06/08 10:23:12;;;;;;;7.53;2.15;;;;;;;22.72;72.12;100578.88;5074617;28;20055;-75
2022/06/08 10:25:46;;;;;;;7.30;2.42;;;;;;;22.76;72.55;100577.50;5074637;28;20051;-75
2022/06/08 10:28:22;;;;;;;7.78;2.28;;;;;;;22.73;73.98;100577.88;5074617;28;20496;-70
2022/06/08 10:30:57;;;;;;;7.65;2.20;;;;;;;22.73;73.10;100576.00;5074618;28;20063;-70
2022/06/08 10:33:40;;;;;;;9.93;2.08;;;;;;;22.87;74.15;100570.81;5074379;28;20511;-70
2022/06/08 10:36:11;;;;;;;7.55;2.22;;;;;;;23.00;74.00;100562.09;5073165;28;20055;-71
2022/06/08 10:38:42;;;;;;;5.70;2.00;;;;;;;23.07;72.87;100568.34;5074343;28;20507;-70
2022/06/08 10:44:33;;;;;;;7.20;2.10;;;;;;;23.18;74.11;100564.38;5074363;28;20568;-71
2022/06/08 10:47:30;;;;;;;7.57;1.88;;;;;;;23.26;71.26;100565.09;5074444;28;20045;-71
2022/06/08 10:50:22;;;;;;;10.30;2.63;;;;;;;23.22;71.73;100561.16;5072619;28;20076;-71
2022/06/08 10:52:51;;;;;;;7.38;2.20;;;;;;;23.05;69.99;100565.03;5074236;28;20053;-71
2022/06/08 10:55:41;;;;;;;6.53;1.90;;;;;;;22.93;69.60;100573.59;5072890;28;20040;-71
2022/06/08 10:58:12;;;;;;;7.32;1.70;;;;;;;22.75;70.99;100575.81;5074169;28;20502;-70
2022/06/08 11:01:05;;;;;;;6.97;2.10;;;;;;;22.31;71.90;100582.00;5074020;28;20045;-70
2022/06/08 11:03:50;;;;;;;8.35;2.50;;;;;;;22.18;73.33;100588.78;5073980;28;20058;-70
2022/06/08 11:06:56;;;;;;;6.45;2.10;;;;;;;22.05;72.39;100592.09;5073981;28;20076;-70
2022/06/08 11:09:54;;;;;;;9.82;2.08;;;;;;;21.84;78.44;100578.56;5073658;28;20045;-70
2022/06/08 11:12:52;;;;;;;8.32;2.28;;;;;;;21.80;79.64;100585.31;5073059;28;20040;-70
2022/06/08 11:15:35;;;;;;;7.88;1.77;;;;;;;21.67;80.83;100581.38;5073884;28;20463;-70
2022/06/08 11:18:18;;;;;;;6.13;1.85;;;;;;;21.52;80.72;100580.47;5073681;28;20044;-72
2022/06/08 11:20:53;;;;;;;6.57;2.20;;;;;;;21.26;82.01;100576.28;5073634;28;20542;-72
2022/06/08 11:23:25;;;;;;;5.63;2.17;;;;;;;21.53;83.14;100571.44;5073525;28;20052;-70
2022/06/08 11:26:15;;;;;;;7.65;2.10;;;;;;;21.44;82.53;100574.16;5073665;28;20584;-70
2022/06/08 11:28:45;;;;;;;6.93;2.40;;;;;;;21.41;81.38;100571.84;5073522;28;20044;-71
2022/06/08 11:31:33;;;;;;;7.93;2.25;;;;;;;21.43;82.07;100580.53;5073527;28;20106;-71
2022/06/08 11:34:16;;;;;;;7.15;2.35;;;;;;;21.54;81.99;100565.94;5073203;28;20057;-72
2022/06/08 11:36:56;;;;;;;7.35;1.77;;;;;;;21.53;78.76;100566.94;5073506;28;20526;-70
2022/06/08 11:39:31;;;;;;;6.57;1.50;;;;;;;21.54;77.53;100565.09;5073347;28;20078;-72
2022/06/08 11:42:16;;;;;;;5.63;1.77;;;;;;;21.37;76.16;100553.66;5073224;28;20084;-72
2022/06/08 11:44:51;;;;;;;6.13;1.67;;;;;;;21.45;76.53;100549.06;5073149;28;20040;-70
2022/06/08 11:47:26;;;;;;;5.72;1.40;;;;;;;21.34;76.24;100546.00;5073226;28;20131;-70
2022/06/08 11:49:57;;;;;;;7.10;1.80;;;;;;;21.07;77.24;100549.00;5073127;28;20176;-70
2022/06/08 11:52:30;;;;;;;7.53;1.85;;;;;;;21.13;77.59;100558.13;5073044;28;20048;-71